sensor_id;sensor_type;location;lat;lon;timestamp;P1;durP1;ratioP1;P2;durP2;ratioP2
78778;SDS011;68121;52.404;5.318;2023-05-19T00:00:16;8.23;;;2.95;;
78778;SDS011;68121;52.404;5.318;2023-05-19T00:02:43;8.30;;;2.90;;
78778;SDS011;68121;52.404;5.318;2023-05-19T00:05:10;7.57;;;2.40;;
78778;SDS011;68121;52.404;5.318;2023-05-19T00:07:43;6.32;;;2.13;;
78778;SDS011;68121;52.404;5.318;2023-05-19T00:10:10;9.07;;;2.70;;
78778;SDS011;68121;52.404;5.318;2023-05-19T00:12:37;6.13;;;2.75;;
78778;SDS011;68121;52.404;5.318;2023-05-19T00:15:03;4.35;;;2.42;;
78778;SDS011;68121;52.404;5.318;2023-05-19T00:17:30;12.18;;;2.45;;
78778;SDS011;68121;52.404;5.318;2023-05-19T00:19:58;4.97;;;2.47;;
78778;SDS011;68121;52.404;5.318;2023-05-19T00:22:24;4.68;;;2.47;;
78778;SDS011;68121;52.404;5.318;2023-05-19T00:24:50;6.35;;;2.60;;
78778;SDS011;68121;52.404;5.318;2023-05-19T00:27:16;7.18;;;2.55;;
78778;SDS011;68121;52.404;5.318;2023-05-19T00:29:42;6.97;;;2.33;;
78778;SDS011;68121;52.404;5.318;2023-05-19T00:32:08;10.60;;;2.90;;
78778;SDS011;68121;52.404;5.318;2023-05-19T00:34:34;6.97;;;2.50;;
78778;SDS011;68121;52.404;5.318;2023-05-19T00:37:00;6.97;;;3.05;;
78778;SDS011;68121;52.404;5.318;2023-05-19T00:39:27;7.82;;;2.65;;
78778;SDS011;68121;52.404;5.318;2023-05-19T00:41:53;6.28;;;2.47;;
78778;SDS011;68121;52.404;5.318;2023-05-19T00:44:20;6.68;;;2.53;;
78778;SDS011;68121;52.404;5.318;2023-05-19T00:46:46;6.32;;;2.85;;
78778;SDS011;68121;52.404;5.318;2023-05-19T00:49:12;5.68;;;2.28;;
78778;SDS011;68121;52.404;5.318;2023-05-19T00:51:38;5.82;;;2.47;;
78778;SDS011;68121;52.404;5.318;2023-05-19T00:54:05;9.48;;;2.60;;
78778;SDS011;68121;52.404;5.318;2023-05-19T00:56:31;6.32;;;2.50;;
78778;SDS011;68121;52.404;5.318;2023-05-19T00:58:57;8.55;;;2.72;;
78778;SDS011;68121;52.404;5.318;2023-05-19T01:01:25;6.50;;;2.80;;
78778;SDS011;68121;52.404;5.318;2023-05-19T01:03:52;6.90;;;2.90;;
78778;SDS011;68121;52.404;5.318;2023-05-19T01:06:21;8.43;;;2.85;;
78778;SDS011;68121;52.404;5.318;2023-05-19T01:08:47;6.97;;;2.92;;
78778;SDS011;68121;52.404;5.318;2023-05-19T01:11:13;8.05;;;2.97;;
78778;SDS011;68121;52.404;5.318;2023-05-19T01:13:39;7.05;;;2.50;;
78778;SDS011;68121;52.404;5.318;2023-05-19T01:26:54;4.72;;;2.85;;
78778;SDS011;68121;52.404;5.318;2023-05-19T01:32:50;6.93;;;2.70;;
78778;SDS011;68121;52.404;5.318;2023-05-19T01:35:19;4.18;;;2.35;;
78778;SDS011;68121;52.404;5.318;2023-05-19T01:37:50;12.65;;;3.13;;
78778;SDS011;68121;52.404;5.318;2023-05-19T01:40:20;8.02;;;2.88;;
78778;SDS011;68121;52.404;5.318;2023-05-19T01:42:47;12.38;;;3.38;;
78778;SDS011;68121;52.404;5.318;2023-05-19T01:45:15;9.40;;;3.05;;
78778;SDS011;68121;52.404;5.318;2023-05-19T01:47:42;9.85;;;3.30;;
78778;SDS011;68121;52.404;5.318;2023-05-19T01:50:11;6.75;;;3.13;;
78778;SDS011;68121;52.404;5.318;2023-05-19T01:52:37;8.85;;;3.25;;
78778;SDS011;68121;52.404;5.318;2023-05-19T01:55:03;10.10;;;3.13;;
78778;SDS011;68121;52.404;5.318;2023-05-19T02:00:14;7.55;;;3.65;;
78778;SDS011;68121;52.404;5.318;2023-05-19T02:11:46;7.65;;;3.75;;
78778;SDS011;68121;52.404;5.318;2023-05-19T02:14:51;8.20;;;3.28;;
78778;SDS011;68121;52.404;5.318;2023-05-19T02:17:16;9.32;;;3.20;;
78778;SDS011;68121;52.404;5.318;2023-05-19T02:19:42;8.73;;;3.38;;
78778;SDS011;68121;52.404;5.318;2023-05-19T02:22:09;9.32;;;3.40;;
78778;SDS011;68121;52.404;5.318;2023-05-19T02:24:35;5.00;;;2.42;;
78778;SDS011;68121;52.404;5.318;2023-05-19T02:27:04;7.03;;;3.03;;
78778;SDS011;68121;52.404;5.318;2023-05-19T02:29:30;9.70;;;3.30;;
78778;SDS011;68121;52.404;5.318;2023-05-19T02:31:57;8.25;;;3.42;;
78778;SDS011;68121;52.404;5.318;2023-05-19T02:34:25;6.13;;;3.33;;
78778;SDS011;68121;52.404;5.318;2023-05-19T02:36:51;8.27;;;3.10;;
78778;SDS011;68121;52.404;5.318;2023-05-19T02:39:17;8.73;;;3.70;;
78778;SDS011;68121;52.404;5.318;2023-05-19T02:41:43;5.85;;;3.22;;
78778;SDS011;68121;52.404;5.318;2023-05-19T02:44:09;10.32;;;3.83;;
78778;SDS011;68121;52.404;5.318;2023-05-19T02:46:35;6.82;;;3.53;;
78778;SDS011;68121;52.404;5.318;2023-05-19T02:49:01;5.63;;;3.55;;
78778;SDS011;68121;52.404;5.318;2023-05-19T02:51:27;6.15;;;2.95;;
78778;SDS011;68121;52.404;5.318;2023-05-19T02:53:53;6.55;;;3.00;;
78778;SDS011;68121;52.404;5.318;2023-05-19T02:56:19;7.90;;;3.90;;
78778;SDS011;68121;52.404;5.318;2023-05-19T02:58:46;9.40;;;3.33;;
78778;SDS011;68121;52.404;5.318;2023-05-19T03:01:12;7.78;;;3.00;;
78778;SDS011;68121;52.404;5.318;2023-05-19T03:03:38;14.85;;;4.07;;
78778;SDS011;68121;52.404;5.318;2023-05-19T03:06:04;11.65;;;3.67;;
78778;SDS011;68121;52.404;5.318;2023-05-19T03:08:33;10.32;;;3.88;;
78778;SDS011;68121;52.404;5.318;2023-05-19T03:11:01;9.10;;;3.75;;
78778;SDS011;68121;52.404;5.318;2023-05-19T03:13:27;5.72;;;2.80;;
78778;SDS011;68121;52.404;5.318;2023-05-19T03:15:53;10.00;;;3.40;;
78778;SDS011;68121;52.404;5.318;2023-05-19T03:18:22;10.57;;;3.63;;
78778;SDS011;68121;52.404;5.318;2023-05-19T03:20:49;7.38;;;3.33;;
78778;SDS011;68121;52.404;5.318;2023-05-19T03:23:15;7.25;;;3.97;;
78778;SDS011;68121;52.404;5.318;2023-05-19T03:25:41;9.70;;;4.10;;
78778;SDS011;68121;52.404;5.318;2023-05-19T03:28:07;6.40;;;3.78;;
78778;SDS011;68121;52.404;5.318;2023-05-19T03:30:33;11.10;;;3.83;;
78778;SDS011;68121;52.404;5.318;2023-05-19T03:32:59;9.40;;;3.67;;
78778;SDS011;68121;52.404;5.318;2023-05-19T03:35:26;13.02;;;4.25;;
78778;SDS011;68121;52.404;5.318;2023-05-19T03:37:52;9.35;;;3.65;;
78778;SDS011;68121;52.404;5.318;2023-05-19T03:40:18;11.65;;;3.95;;
78778;SDS011;68121;52.404;5.318;2023-05-19T03:42:44;12.57;;;3.95;;
78778;SDS011;68121;52.404;5.318;2023-05-19T03:45:10;9.55;;;3.67;;
78778;SDS011;68121;52.404;5.318;2023-05-19T03:47:36;12.30;;;4.25;;
78778;SDS011;68121;52.404;5.318;2023-05-19T03:50:02;10.80;;;4.55;;
78778;SDS011;68121;52.404;5.318;2023-05-19T03:52:29;10.57;;;4.15;;
78778;SDS011;68121;52.404;5.318;2023-05-19T03:54:57;9.95;;;3.60;;
78778;SDS011;68121;52.404;5.318;2023-05-19T03:57:24;10.65;;;4.82;;
78778;SDS011;68121;52.404;5.318;2023-05-19T03:59:50;12.32;;;4.07;;
78778;SDS011;68121;52.404;5.318;2023-05-19T04:02:16;10.88;;;4.15;;
78778;SDS011;68121;52.404;5.318;2023-05-19T04:04:42;8.38;;;3.42;;
78778;SDS011;68121;52.404;5.318;2023-05-19T04:07:08;11.73;;;4.78;;
78778;SDS011;68121;52.404;5.318;2023-05-19T04:09:34;9.15;;;4.32;;
78778;SDS011;68121;52.404;5.318;2023-05-19T04:12:00;8.68;;;4.05;;
78778;SDS011;68121;52.404;5.318;2023-05-19T04:14:29;10.90;;;4.80;;
78778;SDS011;68121;52.404;5.318;2023-05-19T04:16:55;8.77;;;3.95;;
78778;SDS011;68121;52.404;5.318;2023-05-19T04:19:21;7.95;;;3.65;;
78778;SDS011;68121;52.404;5.318;2023-05-19T04:21:47;15.13;;;4.18;;
78778;SDS011;68121;52.404;5.318;2023-05-19T04:24:14;14.73;;;4.50;;
78778;SDS011;68121;52.404;5.318;2023-05-19T04:26:40;11.27;;;4.63;;
78778;SDS011;68121;52.404;5.318;2023-05-19T04:29:10;10.10;;;4.03;;
78778;SDS011;68121;52.404;5.318;2023-05-19T04:31:38;14.40;;;4.50;;
78778;SDS011;68121;52.404;5.318;2023-05-19T04:34:05;8.35;;;4.10;;
78778;SDS011;68121;52.404;5.318;2023-05-19T04:36:35;11.18;;;4.60;;
78778;SDS011;68121;52.404;5.318;2023-05-19T04:39:02;12.05;;;4.82;;
78778;SDS011;68121;52.404;5.318;2023-05-19T04:41:32;11.88;;;4.50;;
78778;SDS011;68121;52.404;5.318;2023-05-19T04:43:59;9.15;;;4.13;;
78778;SDS011;68121;52.404;5.318;2023-05-19T04:46:25;11.25;;;4.88;;
78778;SDS011;68121;52.404;5.318;2023-05-19T04:48:54;15.05;;;4.88;;
78778;SDS011;68121;52.404;5.318;2023-05-19T04:51:21;15.50;;;4.60;;
78778;SDS011;68121;52.404;5.318;2023-05-19T04:53:55;15.95;;;5.07;;
78778;SDS011;68121;52.404;5.318;2023-05-19T04:56:24;12.77;;;5.50;;
78778;SDS011;68121;52.404;5.318;2023-05-19T04:58:51;9.00;;;4.68;;
78778;SDS011;68121;52.404;5.318;2023-05-19T05:01:18;15.05;;;5.15;;
78778;SDS011;68121;52.404;5.318;2023-05-19T05:03:46;10.75;;;4.70;;
78778;SDS011;68121;52.404;5.318;2023-05-19T05:06:12;11.55;;;4.13;;
78778;SDS011;68121;52.404;5.318;2023-05-19T05:08:38;15.10;;;4.93;;
78778;SDS011;68121;52.404;5.318;2023-05-19T05:11:05;12.65;;;4.25;;
78778;SDS011;68121;52.404;5.318;2023-05-19T05:13:32;11.23;;;4.90;;
78778;SDS011;68121;52.404;5.318;2023-05-19T05:15:58;11.32;;;4.50;;
78778;SDS011;68121;52.404;5.318;2023-05-19T05:18:25;11.68;;;4.55;;
78778;SDS011;68121;52.404;5.318;2023-05-19T05:20:51;13.13;;;5.05;;
78778;SDS011;68121;52.404;5.318;2023-05-19T05:23:17;10.35;;;5.00;;
78778;SDS011;68121;52.404;5.318;2023-05-19T05:25:45;12.77;;;4.65;;
78778;SDS011;68121;52.404;5.318;2023-05-19T05:28:11;10.52;;;4.20;;
78778;SDS011;68121;52.404;5.318;2023-05-19T05:30:40;12.52;;;4.38;;
78778;SDS011;68121;52.404;5.318;2023-05-19T05:33:08;13.13;;;5.10;;
78778;SDS011;68121;52.404;5.318;2023-05-19T05:35:34;10.57;;;4.95;;
78778;SDS011;68121;52.404;5.318;2023-05-19T05:38:00;11.70;;;4.68;;
78778;SDS011;68121;52.404;5.318;2023-05-19T05:40:27;8.05;;;4.55;;
78778;SDS011;68121;52.404;5.318;2023-05-19T05:42:53;13.02;;;5.20;;
78778;SDS011;68121;52.404;5.318;2023-05-19T05:45:21;9.50;;;4.45;;
78778;SDS011;68121;52.404;5.318;2023-05-19T05:47:47;11.20;;;5.25;;
78778;SDS011;68121;52.404;5.318;2023-05-19T05:50:14;10.35;;;5.10;;
78778;SDS011;68121;52.404;5.318;2023-05-19T05:52:40;12.90;;;5.60;;
78778;SDS011;68121;52.404;5.318;2023-05-19T05:55:09;9.13;;;4.72;;
78778;SDS011;68121;52.404;5.318;2023-05-19T05:57:36;7.55;;;4.57;;
78778;SDS011;68121;52.404;5.318;2023-05-19T06:00:03;12.48;;;4.70;;
78778;SDS011;68121;52.404;5.318;2023-05-19T06:02:34;8.40;;;4.85;;
78778;SDS011;68121;52.404;5.318;2023-05-19T06:05:01;10.85;;;4.82;;
78778;SDS011;68121;52.404;5.318;2023-05-19T06:07:27;8.93;;;4.70;;
78778;SDS011;68121;52.404;5.318;2023-05-19T06:09:53;11.77;;;3.97;;
78778;SDS011;68121;52.404;5.318;2023-05-19T06:12:21;11.65;;;5.05;;
78778;SDS011;68121;52.404;5.318;2023-05-19T06:14:47;11.55;;;4.85;;
78778;SDS011;68121;52.404;5.318;2023-05-19T06:17:13;7.95;;;4.65;;
78778;SDS011;68121;52.404;5.318;2023-05-19T06:19:39;13.07;;;6.00;;
78778;SDS011;68121;52.404;5.318;2023-05-19T06:22:05;9.00;;;4.97;;
78778;SDS011;68121;52.404;5.318;2023-05-19T06:24:31;10.05;;;4.85;;
78778;SDS011;68121;52.404;5.318;2023-05-19T06:26:57;8.18;;;4.47;;
78778;SDS011;68121;52.404;5.318;2023-05-19T06:29:23;13.02;;;4.97;;
78778;SDS011;68121;52.404;5.318;2023-05-19T06:31:49;11.18;;;4.65;;
78778;SDS011;68121;52.404;5.318;2023-05-19T06:34:15;13.05;;;5.05;;
78778;SDS011;68121;52.404;5.318;2023-05-19T06:36:42;7.85;;;4.20;;
78778;SDS011;68121;52.404;5.318;2023-05-19T06:39:08;10.85;;;4.22;;
78778;SDS011;68121;52.404;5.318;2023-05-19T06:41:34;11.27;;;4.70;;
78778;SDS011;68121;52.404;5.318;2023-05-19T06:44:00;9.02;;;4.03;;
78778;SDS011;68121;52.404;5.318;2023-05-19T06:46:26;9.43;;;4.63;;
78778;SDS011;68121;52.404;5.318;2023-05-19T06:48:52;14.10;;;4.93;;
78778;SDS011;68121;52.404;5.318;2023-05-19T06:51:18;11.02;;;4.30;;
78778;SDS011;68121;52.404;5.318;2023-05-19T06:53:46;10.80;;;4.35;;
78778;SDS011;68121;52.404;5.318;2023-05-19T06:56:13;10.25;;;4.75;;
78778;SDS011;68121;52.404;5.318;2023-05-19T06:58:43;10.55;;;4.35;;
78778;SDS011;68121;52.404;5.318;2023-05-19T07:01:10;11.27;;;5.00;;
78778;SDS011;68121;52.404;5.318;2023-05-19T07:03:36;8.95;;;4.30;;
78778;SDS011;68121;52.404;5.318;2023-05-19T07:06:02;9.80;;;4.40;;
78778;SDS011;68121;52.404;5.318;2023-05-19T07:08:28;7.40;;;4.65;;
78778;SDS011;68121;52.404;5.318;2023-05-19T07:10:54;9.07;;;4.43;;
78778;SDS011;68121;52.404;5.318;2023-05-19T07:13:20;10.35;;;4.20;;
78778;SDS011;68121;52.404;5.318;2023-05-19T07:15:46;9.50;;;3.83;;
78778;SDS011;68121;52.404;5.318;2023-05-19T07:18:16;10.10;;;3.90;;
78778;SDS011;68121;52.404;5.318;2023-05-19T07:20:42;7.95;;;3.83;;
78778;SDS011;68121;52.404;5.318;2023-05-19T07:23:09;10.60;;;3.72;;
78778;SDS011;68121;52.404;5.318;2023-05-19T07:25:35;13.13;;;4.10;;
78778;SDS011;68121;52.404;5.318;2023-05-19T07:28:01;11.43;;;4.03;;
78778;SDS011;68121;52.404;5.318;2023-05-19T07:30:27;8.90;;;3.35;;
78778;SDS011;68121;52.404;5.318;2023-05-19T07:32:54;9.90;;;4.18;;
78778;SDS011;68121;52.404;5.318;2023-05-19T07:35:20;7.40;;;4.07;;
78778;SDS011;68121;52.404;5.318;2023-05-19T07:37:50;7.40;;;4.28;;
78778;SDS011;68121;52.404;5.318;2023-05-19T07:40:16;8.93;;;4.20;;
78778;SDS011;68121;52.404;5.318;2023-05-19T07:42:43;8.98;;;4.50;;
78778;SDS011;68121;52.404;5.318;2023-05-19T07:45:09;8.00;;;4.40;;
78778;SDS011;68121;52.404;5.318;2023-05-19T07:47:36;11.77;;;4.38;;
78778;SDS011;68121;52.404;5.318;2023-05-19T07:50:02;9.48;;;4.47;;
78778;SDS011;68121;52.404;5.318;2023-05-19T07:52:28;12.63;;;4.75;;
78778;SDS011;68121;52.404;5.318;2023-05-19T07:54:54;8.43;;;3.92;;
78778;SDS011;68121;52.404;5.318;2023-05-19T07:57:21;7.28;;;4.55;;
78778;SDS011;68121;52.404;5.318;2023-05-19T07:59:47;8.27;;;4.35;;
78778;SDS011;68121;52.404;5.318;2023-05-19T08:02:13;8.63;;;4.03;;
78778;SDS011;68121;52.404;5.318;2023-05-19T08:04:39;8.27;;;3.85;;
78778;SDS011;68121;52.404;5.318;2023-05-19T08:07:05;7.95;;;3.88;;
78778;SDS011;68121;52.404;5.318;2023-05-19T08:09:31;9.38;;;3.85;;
78778;SDS011;68121;52.404;5.318;2023-05-19T08:11:57;8.93;;;4.20;;
78778;SDS011;68121;52.404;5.318;2023-05-19T08:14:23;10.25;;;4.82;;
78778;SDS011;68121;52.404;5.318;2023-05-19T08:16:49;10.75;;;4.00;;
78778;SDS011;68121;52.404;5.318;2023-05-19T08:19:16;7.25;;;3.10;;
78778;SDS011;68121;52.404;5.318;2023-05-19T08:21:42;9.23;;;4.38;;
78778;SDS011;68121;52.404;5.318;2023-05-19T08:24:09;9.15;;;4.72;;
78778;SDS011;68121;52.404;5.318;2023-05-19T08:26:35;9.32;;;3.53;;
78778;SDS011;68121;52.404;5.318;2023-05-19T08:29:01;7.60;;;4.78;;
78778;SDS011;68121;52.404;5.318;2023-05-19T08:31:27;5.85;;;3.00;;
78778;SDS011;68121;52.404;5.318;2023-05-19T08:33:53;8.23;;;3.92;;
78778;SDS011;68121;52.404;5.318;2023-05-19T08:36:19;7.97;;;4.00;;
78778;SDS011;68121;52.404;5.318;2023-05-19T08:38:46;8.32;;;2.95;;
78778;SDS011;68121;52.404;5.318;2023-05-19T08:41:12;9.32;;;3.10;;
78778;SDS011;68121;52.404;5.318;2023-05-19T08:43:38;11.00;;;3.47;;
78778;SDS011;68121;52.404;5.318;2023-05-19T08:46:04;11.23;;;3.35;;
78778;SDS011;68121;52.404;5.318;2023-05-19T08:48:32;4.47;;;2.75;;
78778;SDS011;68121;52.404;5.318;2023-05-19T08:53:52;8.52;;;2.85;;
78778;SDS011;68121;52.404;5.318;2023-05-19T08:56:24;9.18;;;2.78;;
78778;SDS011;68121;52.404;5.318;2023-05-19T08:58:51;7.00;;;2.72;;
78778;SDS011;68121;52.404;5.318;2023-05-19T09:01:18;5.88;;;2.60;;
78778;SDS011;68121;52.404;5.318;2023-05-19T09:03:45;5.88;;;2.50;;
78778;SDS011;68121;52.404;5.318;2023-05-19T09:06:14;6.65;;;2.78;;
78778;SDS011;68121;52.404;5.318;2023-05-19T09:08:40;5.55;;;2.47;;
78778;SDS011;68121;52.404;5.318;2023-05-19T09:11:07;5.85;;;2.67;;
78778;SDS011;68121;52.404;5.318;2023-05-19T09:13:34;7.95;;;2.55;;
78778;SDS011;68121;52.404;5.318;2023-05-19T09:16:00;6.47;;;2.42;;
78778;SDS011;68121;52.404;5.318;2023-05-19T09:18:27;5.75;;;2.67;;
78778;SDS011;68121;52.404;5.318;2023-05-19T09:20:57;11.50;;;2.90;;
78778;SDS011;68121;52.404;5.318;2023-05-19T09:23:28;6.45;;;3.20;;
78778;SDS011;68121;52.404;5.318;2023-05-19T09:26:00;8.52;;;3.15;;
78778;SDS011;68121;52.404;5.318;2023-05-19T09:28:32;6.65;;;2.85;;
78778;SDS011;68121;52.404;5.318;2023-05-19T09:33:33;9.13;;;2.70;;
78778;SDS011;68121;52.404;5.318;2023-05-19T09:36:03;11.30;;;3.90;;
78778;SDS011;68121;52.404;5.318;2023-05-19T09:38:30;6.70;;;3.20;;
78778;SDS011;68121;52.404;5.318;2023-05-19T09:40:57;6.82;;;2.40;;
78778;SDS011;68121;52.404;5.318;2023-05-19T09:43:27;6.07;;;2.40;;
78778;SDS011;68121;52.404;5.318;2023-05-19T09:48:33;4.78;;;2.50;;
78778;SDS011;68121;52.404;5.318;2023-05-19T09:51:01;6.53;;;2.08;;
78778;SDS011;68121;52.404;5.318;2023-05-19T09:53:32;3.40;;;1.90;;
78778;SDS011;68121;52.404;5.318;2023-05-19T09:55:59;5.38;;;1.80;;
78778;SDS011;68121;52.404;5.318;2023-05-19T09:58:29;5.40;;;1.98;;
78778;SDS011;68121;52.404;5.318;2023-05-19T10:00:59;5.63;;;1.85;;
78778;SDS011;68121;52.404;5.318;2023-05-19T10:03:26;6.20;;;2.35;;
78778;SDS011;68121;52.404;5.318;2023-05-19T10:05:53;8.50;;;2.15;;
78778;SDS011;68121;52.404;5.318;2023-05-19T10:08:19;4.40;;;1.60;;
78778;SDS011;68121;52.404;5.318;2023-05-19T10:10:48;4.30;;;1.90;;
78778;SDS011;68121;52.404;5.318;2023-05-19T10:13:14;8.18;;;2.05;;
78778;SDS011;68121;52.404;5.318;2023-05-19T10:15:41;3.22;;;1.85;;
78778;SDS011;68121;52.404;5.318;2023-05-19T10:18:08;6.65;;;2.20;;
78778;SDS011;68121;52.404;5.318;2023-05-19T10:20:35;9.88;;;2.25;;
78778;SDS011;68121;52.404;5.318;2023-05-19T10:23:01;3.90;;;2.00;;
78778;SDS011;68121;52.404;5.318;2023-05-19T10:25:29;6.65;;;2.22;;
78778;SDS011;68121;52.404;5.318;2023-05-19T10:28:02;5.05;;;1.85;;
78778;SDS011;68121;52.404;5.318;2023-05-19T10:30:40;7.32;;;1.95;;
78778;SDS011;68121;52.404;5.318;2023-05-19T10:33:15;3.78;;;1.80;;
78778;SDS011;68121;52.404;5.318;2023-05-19T10:47:00;5.20;;;2.00;;
78778;SDS011;68121;52.404;5.318;2023-05-19T10:49:26;4.38;;;1.88;;
78778;SDS011;68121;52.404;5.318;2023-05-19T10:51:55;5.18;;;2.00;;
78778;SDS011;68121;52.404;5.318;2023-05-19T10:54:40;5.38;;;2.55;;
78778;SDS011;68121;52.404;5.318;2023-05-19T10:57:07;3.78;;;1.73;;
78778;SDS011;68121;52.404;5.318;2023-05-19T10:59:40;4.72;;;2.17;;
78778;SDS011;68121;52.404;5.318;2023-05-19T11:02:07;5.15;;;2.15;;
78778;SDS011;68121;52.404;5.318;2023-05-19T11:04:46;8.90;;;2.58;;
78778;SDS011;68121;52.404;5.318;2023-05-19T11:07:18;6.57;;;2.90;;
78778;SDS011;68121;52.404;5.318;2023-05-19T11:09:51;6.53;;;2.60;;
78778;SDS011;68121;52.404;5.318;2023-05-19T11:12:21;7.95;;;2.10;;
78778;SDS011;68121;52.404;5.318;2023-05-19T11:14:51;4.55;;;2.20;;
78778;SDS011;68121;52.404;5.318;2023-05-19T11:17:18;7.50;;;2.22;;
78778;SDS011;68121;52.404;5.318;2023-05-19T11:19:51;5.28;;;2.10;;
78778;SDS011;68121;52.404;5.318;2023-05-19T11:22:23;5.57;;;2.45;;
78778;SDS011;68121;52.404;5.318;2023-05-19T11:24:50;5.00;;;2.10;;
78778;SDS011;68121;52.404;5.318;2023-05-19T11:27:20;3.83;;;2.05;;
78778;SDS011;68121;52.404;5.318;2023-05-19T11:29:49;8.07;;;2.30;;
78778;SDS011;68121;52.404;5.318;2023-05-19T11:32:16;4.63;;;2.40;;
78778;SDS011;68121;52.404;5.318;2023-05-19T11:34:43;7.10;;;2.15;;
78778;SDS011;68121;52.404;5.318;2023-05-19T11:37:10;6.15;;;1.90;;
78778;SDS011;68121;52.404;5.318;2023-05-19T11:39:37;6.68;;;2.78;;
78778;SDS011;68121;52.404;5.318;2023-05-19T11:42:04;8.15;;;2.45;;
78778;SDS011;68121;52.404;5.318;2023-05-19T11:44:30;5.55;;;2.67;;
78778;SDS011;68121;52.404;5.318;2023-05-19T11:47:00;9.65;;;2.92;;
78778;SDS011;68121;52.404;5.318;2023-05-19T11:49:27;7.00;;;2.47;;
78778;SDS011;68121;52.404;5.318;2023-05-19T11:51:53;5.30;;;2.60;;
78778;SDS011;68121;52.404;5.318;2023-05-19T11:54:20;9.00;;;3.13;;
78778;SDS011;68121;52.404;5.318;2023-05-19T11:56:53;8.15;;;2.67;;
78778;SDS011;68121;52.404;5.318;2023-05-19T11:59:27;9.27;;;2.50;;
78778;SDS011;68121;52.404;5.318;2023-05-19T12:02:01;7.00;;;2.50;;
78778;SDS011;68121;52.404;5.318;2023-05-19T12:04:29;6.05;;;2.00;;
78778;SDS011;68121;52.404;5.318;2023-05-19T12:06:56;6.80;;;2.70;;
78778;SDS011;68121;52.404;5.318;2023-05-19T12:09:22;4.38;;;2.40;;
78778;SDS011;68121;52.404;5.318;2023-05-19T12:11:51;8.88;;;2.58;;
78778;SDS011;68121;52.404;5.318;2023-05-19T12:14:19;6.85;;;2.72;;
78778;SDS011;68121;52.404;5.318;2023-05-19T12:16:45;9.35;;;2.20;;
78778;SDS011;68121;52.404;5.318;2023-05-19T12:19:11;6.72;;;1.98;;
78778;SDS011;68121;52.404;5.318;2023-05-19T12:21:38;4.55;;;2.17;;
78778;SDS011;68121;52.404;5.318;2023-05-19T12:24:04;5.47;;;2.20;;
78778;SDS011;68121;52.404;5.318;2023-05-19T12:26:31;2.25;;;1.83;;
78778;SDS011;68121;52.404;5.318;2023-05-19T12:28:57;5.15;;;1.70;;
78778;SDS011;68121;52.404;5.318;2023-05-19T12:31:24;5.40;;;1.80;;
78778;SDS011;68121;52.404;5.318;2023-05-19T12:33:50;10.57;;;2.20;;
78778;SDS011;68121;52.404;5.318;2023-05-19T12:36:17;9.98;;;2.28;;
78778;SDS011;68121;52.404;5.318;2023-05-19T12:38:43;4.95;;;1.80;;
78778;SDS011;68121;52.404;5.318;2023-05-19T12:41:10;5.88;;;2.13;;
78778;SDS011;68121;52.404;5.318;2023-05-19T12:43:37;9.10;;;2.10;;
78778;SDS011;68121;52.404;5.318;2023-05-19T12:46:10;5.32;;;2.00;;
78778;SDS011;68121;52.404;5.318;2023-05-19T12:48:42;5.30;;;1.90;;
78778;SDS011;68121;52.404;5.318;2023-05-19T12:51:09;5.53;;;2.00;;
78778;SDS011;68121;52.404;5.318;2023-05-19T12:53:40;4.65;;;1.95;;
78778;SDS011;68121;52.404;5.318;2023-05-19T12:56:10;6.22;;;2.10;;
78778;SDS011;68121;52.404;5.318;2023-05-19T12:58:38;6.07;;;2.40;;
78778;SDS011;68121;52.404;5.318;2023-05-19T13:01:05;4.13;;;2.60;;
78778;SDS011;68121;52.404;5.318;2023-05-19T13:03:38;5.95;;;2.38;;
78778;SDS011;68121;52.404;5.318;2023-05-19T13:06:06;4.05;;;1.85;;
78778;SDS011;68121;52.404;5.318;2023-05-19T13:08:33;6.35;;;2.03;;
78778;SDS011;68121;52.404;5.318;2023-05-19T13:10:59;3.80;;;1.88;;
78778;SDS011;68121;52.404;5.318;2023-05-19T13:13:26;5.82;;;1.75;;
78778;SDS011;68121;52.404;5.318;2023-05-19T13:15:52;8.98;;;2.50;;
78778;SDS011;68121;52.404;5.318;2023-05-19T13:18:18;4.88;;;1.80;;
78778;SDS011;68121;52.404;5.318;2023-05-19T13:20:44;5.72;;;2.05;;
78778;SDS011;68121;52.404;5.318;2023-05-19T13:23:12;4.25;;;1.65;;
78778;SDS011;68121;52.404;5.318;2023-05-19T13:25:39;5.25;;;2.10;;
78778;SDS011;68121;52.404;5.318;2023-05-19T13:28:05;4.05;;;2.08;;
78778;SDS011;68121;52.404;5.318;2023-05-19T13:30:32;5.03;;;2.05;;
78778;SDS011;68121;52.404;5.318;2023-05-19T13:32:59;5.22;;;2.47;;
78778;SDS011;68121;52.404;5.318;2023-05-19T13:35:25;6.28;;;1.95;;
78778;SDS011;68121;52.404;5.318;2023-05-19T13:37:51;7.03;;;3.35;;
78778;SDS011;68121;52.404;5.318;2023-05-19T13:40:17;4.10;;;2.42;;
78778;SDS011;68121;52.404;5.318;2023-05-19T13:42:43;4.72;;;2.42;;
78778;SDS011;68121;52.404;5.318;2023-05-19T13:45:10;5.97;;;1.80;;
78778;SDS011;68121;52.404;5.318;2023-05-19T13:47:37;5.47;;;1.75;;
78778;SDS011;68121;52.404;5.318;2023-05-19T13:50:03;4.47;;;1.83;;
78778;SDS011;68121;52.404;5.318;2023-05-19T13:52:30;3.60;;;1.73;;
78778;SDS011;68121;52.404;5.318;2023-05-19T13:54:56;5.57;;;2.33;;
78778;SDS011;68121;52.404;5.318;2023-05-19T13:57:22;6.05;;;2.03;;
78778;SDS011;68121;52.404;5.318;2023-05-19T13:59:49;5.03;;;1.98;;
78778;SDS011;68121;52.404;5.318;2023-05-19T14:02:15;6.97;;;1.80;;
78778;SDS011;68121;52.404;5.318;2023-05-19T14:04:41;4.78;;;1.60;;
78778;SDS011;68121;52.404;5.318;2023-05-19T14:07:07;3.85;;;1.30;;
78778;SDS011;68121;52.404;5.318;2023-05-19T14:09:34;5.97;;;1.60;;
78778;SDS011;68121;52.404;5.318;2023-05-19T14:12:01;6.05;;;1.67;;
78778;SDS011;68121;52.404;5.318;2023-05-19T14:14:27;5.13;;;1.70;;
78778;SDS011;68121;52.404;5.318;2023-05-19T14:16:53;4.90;;;1.92;;
78778;SDS011;68121;52.404;5.318;2023-05-19T14:19:20;3.35;;;1.50;;
78778;SDS011;68121;52.404;5.318;2023-05-19T14:21:48;4.15;;;1.85;;
78778;SDS011;68121;52.404;5.318;2023-05-19T14:24:14;3.13;;;1.70;;
78778;SDS011;68121;52.404;5.318;2023-05-19T14:26:40;3.55;;;1.60;;
78778;SDS011;68121;52.404;5.318;2023-05-19T14:29:06;4.63;;;2.00;;
78778;SDS011;68121;52.404;5.318;2023-05-19T14:31:33;3.83;;;1.48;;
78778;SDS011;68121;52.404;5.318;2023-05-19T14:33:59;3.55;;;1.60;;
78778;SDS011;68121;52.404;5.318;2023-05-19T14:36:25;3.67;;;1.80;;
78778;SDS011;68121;52.404;5.318;2023-05-19T14:38:51;6.65;;;1.73;;
78778;SDS011;68121;52.404;5.318;2023-05-19T14:41:17;3.80;;;1.50;;
78778;SDS011;68121;52.404;5.318;2023-05-19T14:43:43;5.25;;;1.77;;
78778;SDS011;68121;52.404;5.318;2023-05-19T14:46:09;5.05;;;2.03;;
78778;SDS011;68121;52.404;5.318;2023-05-19T14:48:35;3.33;;;1.40;;
78778;SDS011;68121;52.404;5.318;2023-05-19T14:51:01;4.32;;;1.50;;
78778;SDS011;68121;52.404;5.318;2023-05-19T14:53:27;6.57;;;1.92;;
78778;SDS011;68121;52.404;5.318;2023-05-19T14:55:53;3.00;;;1.75;;
78778;SDS011;68121;52.404;5.318;2023-05-19T14:58:20;4.05;;;1.70;;
78778;SDS011;68121;52.404;5.318;2023-05-19T15:00:46;4.57;;;1.80;;
78778;SDS011;68121;52.404;5.318;2023-05-19T15:03:12;6.43;;;2.00;;
78778;SDS011;68121;52.404;5.318;2023-05-19T15:05:38;5.53;;;1.80;;
78778;SDS011;68121;52.404;5.318;2023-05-19T15:08:07;3.58;;;1.90;;
78778;SDS011;68121;52.404;5.318;2023-05-19T15:10:33;4.60;;;1.80;;
78778;SDS011;68121;52.404;5.318;2023-05-19T15:12:59;5.70;;;1.48;;
78778;SDS011;68121;52.404;5.318;2023-05-19T15:15:26;4.55;;;1.95;;
78778;SDS011;68121;52.404;5.318;2023-05-19T15:17:52;3.88;;;1.80;;
78778;SDS011;68121;52.404;5.318;2023-05-19T15:20:18;6.93;;;2.03;;
78778;SDS011;68121;52.404;5.318;2023-05-19T15:22:44;4.25;;;1.83;;
78778;SDS011;68121;52.404;5.318;2023-05-19T15:25:10;7.60;;;1.85;;
78778;SDS011;68121;52.404;5.318;2023-05-19T15:27:36;4.20;;;1.67;;
78778;SDS011;68121;52.404;5.318;2023-05-19T15:30:02;4.28;;;2.05;;